createdAt,value
2022-09-29T00:00:00.744Z,9.00
2022-09-29T00:02:48.865Z,9.00
2022-09-29T00:05:37.254Z,9.00
2022-09-29T00:08:27.175Z,9.10
2022-09-29T00:11:19.324Z,9.10
2022-09-29T00:14:07.458Z,9.10
2022-09-29T00:16:57.231Z,9.10
2022-09-29T00:19:45.362Z,9.00
2022-09-29T00:22:33.975Z,9.00
2022-09-29T00:25:22.042Z,9.00
2022-09-29T00:28:10.126Z,9.00
2022-09-29T00:31:00.905Z,8.90
2022-09-29T00:33:51.010Z,8.90
2022-09-29T00:36:39.067Z,10.10
2022-09-29T00:39:27.166Z,8.60
2022-09-29T00:42:19.741Z,8.50
2022-09-29T00:45:23.459Z,8.40
2022-09-29T00:48:17.923Z,8.30
2022-09-29T00:51:08.075Z,8.20
2022-09-29T00:53:56.799Z,8.10
2022-09-29T00:56:46.641Z,8.00
2022-09-29T00:59:40.974Z,7.90
2022-09-29T01:02:32.241Z,7.90
2022-09-29T01:05:25.065Z,7.90
2022-09-29T01:08:17.845Z,7.80
2022-09-29T01:11:07.045Z,7.80
2022-09-29T01:13:57.249Z,7.80
2022-09-29T01:16:45.860Z,7.80
2022-09-29T01:19:48.224Z,7.70
2022-09-29T01:23:18.424Z,7.70
2022-09-29T01:26:54.346Z,7.70
2022-09-29T01:30:07.686Z,7.80
2022-09-29T01:33:10.292Z,7.80
2022-09-29T01:36:08.078Z,7.90
2022-09-29T01:39:04.164Z,7.90
2022-09-29T01:41:57.068Z,8.00
2022-09-29T01:44:49.978Z,8.00
2022-09-29T01:47:42.640Z,7.90
2022-09-29T01:50:35.798Z,7.90
2022-09-29T01:53:29.576Z,8.00
2022-09-29T01:56:27.122Z,7.90
2022-09-29T01:59:21.239Z,8.00
2022-09-29T02:02:12.664Z,7.90
2022-09-29T02:05:03.733Z,7.90
2022-09-29T02:07:56.932Z,7.90
2022-09-29T02:10:51.654Z,7.90
2022-09-29T02:13:42.195Z,7.90
2022-09-29T02:16:31.983Z,7.90
2022-09-29T02:19:23.811Z,8.00
2022-09-29T02:22:11.949Z,8.00
2022-09-29T02:25:02.341Z,8.00
2022-09-29T02:27:51.302Z,8.10
2022-09-29T02:30:39.477Z,8.10
2022-09-29T02:33:27.593Z,8.00
2022-09-29T02:36:24.524Z,8.10
2022-09-29T02:39:20.939Z,8.10
2022-09-29T02:42:19.762Z,8.20
2022-09-29T02:45:22.393Z,8.20
2022-09-29T02:48:22.338Z,8.30
2022-09-29T02:51:15.904Z,8.30
2022-09-29T02:54:20.368Z,8.40
2022-09-29T02:57:18.794Z,8.30
2022-09-29T03:00:10.894Z,8.30
2022-09-29T03:02:59.532Z,8.40
2022-09-29T03:05:48.282Z,8.40
2022-09-29T03:08:36.332Z,8.40
2022-09-29T03:11:24.412Z,8.40
2022-09-29T03:14:13.932Z,8.40
2022-09-29T03:17:02.023Z,8.40
2022-09-29T03:19:50.067Z,8.40
2022-09-29T03:22:38.521Z,8.10
2022-09-29T03:25:26.829Z,8.40
2022-09-29T03:28:16.467Z,8.40
2022-09-29T03:31:10.476Z,8.50
2022-09-29T03:33:58.561Z,8.50
2022-09-29T03:36:46.709Z,8.40
2022-09-29T03:39:34.747Z,7.10
2022-09-29T03:42:24.314Z,8.50
2022-09-29T03:45:12.350Z,8.50
2022-09-29T03:48:02.152Z,8.50
2022-09-29T03:50:51.708Z,8.50
2022-09-29T03:53:39.795Z,8.50
2022-09-29T03:56:27.866Z,8.50
2022-09-29T03:59:15.959Z,8.50
2022-09-29T04:02:04.242Z,8.50
2022-09-29T04:04:53.859Z,8.60
2022-09-29T04:07:41.918Z,8.60
2022-09-29T04:10:29.953Z,8.60
2022-09-29T04:13:20.242Z,8.60
2022-09-29T04:16:08.631Z,8.60
2022-09-29T04:18:56.746Z,8.50
2022-09-29T04:21:47.044Z,8.60
2022-09-29T04:24:35.096Z,8.60
2022-09-29T04:27:23.203Z,8.60
2022-09-29T04:30:12.325Z,8.70
2022-09-29T04:33:00.398Z,8.60
2022-09-29T04:35:48.451Z,8.70
2022-09-29T04:38:37.827Z,8.60
2022-09-29T04:41:25.884Z,8.60
2022-09-29T04:44:14.101Z,8.60
2022-09-29T04:47:02.164Z,8.60
2022-09-29T04:49:50.277Z,8.50
2022-09-29T04:52:38.333Z,8.50
2022-09-29T04:55:28.096Z,8.50
2022-09-29T04:58:16.234Z,8.50
2022-09-29T05:01:09.272Z,8.50
2022-09-29T05:03:58.015Z,8.40
2022-09-29T05:06:46.312Z,8.50
2022-09-29T05:09:34.501Z,8.40
2022-09-29T05:12:24.012Z,8.40
2022-09-29T05:15:12.163Z,8.40
2022-09-29T05:18:03.297Z,8.50
2022-09-29T05:21:15.910Z,8.50
2022-09-29T05:23:59.547Z,8.50
2022-09-29T05:26:47.671Z,8.60
2022-09-29T05:29:37.239Z,8.60
2022-09-29T05:32:25.285Z,8.70
2022-09-29T05:35:13.366Z,8.70
2022-09-29T05:38:01.614Z,8.80
2022-09-29T05:40:49.708Z,8.90
2022-09-29T05:43:38.155Z,8.80
2022-09-29T05:46:27.648Z,8.80
2022-09-29T05:49:15.766Z,9.90
2022-09-29T05:52:04.110Z,9.60
2022-09-29T05:54:52.180Z,9.00
2022-09-29T05:57:40.284Z,9.10
2022-09-29T06:00:28.607Z,8.90
2022-09-29T06:03:18.370Z,9.10
2022-09-29T06:06:12.296Z,9.10
2022-09-29T06:09:00.940Z,9.10
2022-09-29T06:11:49.440Z,9.10
2022-09-29T06:14:37.568Z,9.10
2022-09-29T06:17:25.613Z,9.20
2022-09-29T06:20:15.126Z,9.20
2022-09-29T06:23:03.208Z,9.30
2022-09-29T06:25:56.991Z,9.40
2022-09-29T06:28:45.018Z,9.60
2022-09-29T06:31:33.818Z,9.70
2022-09-29T06:34:22.010Z,9.80
2022-09-29T06:37:28.736Z,9.90
2022-09-29T06:40:16.791Z,9.60
2022-09-29T06:43:04.846Z,10.20
2022-09-29T06:45:52.925Z,10.20
2022-09-29T06:48:40.974Z,10.30
2022-09-29T06:51:41.094Z,10.40
2022-09-29T06:54:32.645Z,10.50
2022-09-29T06:57:20.773Z,10.50
2022-09-29T07:00:10.262Z,10.60
2022-09-29T07:02:58.404Z,10.40
2022-09-29T07:06:02.029Z,10.40
2022-09-29T07:08:55.584Z,10.50
2022-09-29T07:11:46.773Z,10.50
2022-09-29T07:14:35.066Z,10.40
2022-09-29T07:17:23.194Z,10.50
2022-09-29T07:20:11.455Z,10.40
2022-09-29T07:23:00.279Z,10.50
2022-09-29T07:25:52.118Z,10.60
2022-09-29T07:28:41.993Z,10.70
2022-09-29T07:31:34.042Z,10.80
2022-09-29T07:34:30.765Z,10.90
2022-09-29T07:37:18.857Z,10.90
2022-09-29T07:40:07.997Z,11.10
2022-09-29T07:42:56.359Z,11.20
2022-09-29T07:45:50.118Z,11.30
2022-09-29T07:48:38.995Z,11.40
2022-09-29T07:51:27.415Z,11.50
2022-09-29T07:54:15.517Z,11.50
2022-09-29T07:57:03.957Z,11.60
2022-09-29T07:59:53.469Z,11.70
2022-09-29T08:02:43.684Z,11.90
2022-09-29T08:05:33.677Z,11.80
2022-09-29T08:08:21.866Z,12.10
2022-09-29T08:11:17.049Z,12.10
2022-09-29T08:14:12.018Z,12.10
2022-09-29T08:17:00.587Z,12.20
2022-09-29T08:19:50.314Z,12.30
2022-09-29T08:22:38.376Z,12.30
2022-09-29T08:25:26.718Z,12.40
2022-09-29T08:28:25.720Z,12.30
2022-09-29T08:31:17.008Z,12.80
2022-09-29T08:34:05.350Z,12.80
2022-09-29T08:36:55.904Z,13.10
2022-09-29T08:39:44.048Z,13.10
2022-09-29T08:42:48.778Z,13.20
2022-09-29T08:45:54.235Z,13.20
2022-09-29T08:48:55.726Z,13.10
2022-09-29T08:51:49.215Z,13.10
2022-09-29T08:54:46.284Z,13.00
2022-09-29T08:57:36.876Z,12.70
2022-09-29T09:00:38.151Z,12.60
2022-09-29T09:03:53.774Z,12.50
2022-09-29T09:06:51.781Z,12.50
2022-09-29T09:10:03.185Z,12.50
2022-09-29T09:13:06.647Z,12.70
2022-09-29T09:16:14.347Z,12.80
2022-09-29T09:19:31.441Z,12.90
2022-09-29T09:22:23.572Z,12.80
2022-09-29T09:25:22.568Z,12.70
2022-09-29T09:28:17.960Z,12.70
2022-09-29T09:31:10.316Z,12.60
2022-09-29T09:34:06.514Z,12.60
2022-09-29T09:37:06.539Z,12.70
2022-09-29T09:40:01.141Z,12.80
2022-09-29T09:42:56.006Z,13.00
2022-09-29T09:45:49.346Z,13.20
2022-09-29T09:48:43.063Z,13.30
2022-09-29T09:51:41.479Z,13.40
2022-09-29T09:54:34.972Z,13.50
2022-09-29T09:57:50.151Z,13.80
2022-09-29T10:00:43.912Z,14.10
2022-09-29T10:03:32.434Z,14.40
2022-09-29T10:06:20.594Z,14.40
2022-09-29T10:09:14.448Z,14.30
2022-09-29T10:12:03.062Z,14.20
2022-09-29T10:14:54.748Z,14.00
2022-09-29T10:17:47.868Z,13.90
2022-09-29T10:20:38.839Z,13.90
2022-09-29T10:23:32.438Z,14.00
2022-09-29T10:26:25.846Z,14.10
2022-09-29T10:29:29.273Z,14.40
2022-09-29T10:32:24.530Z,15.10
2022-09-29T10:35:23.158Z,15.20
2022-09-29T10:38:18.692Z,15.70
2022-09-29T10:41:09.000Z,16.30
2022-09-29T10:43:57.066Z,16.40
2022-09-29T10:46:52.075Z,16.40
2022-09-29T10:49:40.252Z,16.30
2022-09-29T10:52:30.252Z,15.90
2022-09-29T10:55:20.996Z,15.80
2022-09-29T10:58:44.378Z,15.90
2022-09-29T11:01:45.936Z,16.00
2022-09-29T11:04:36.460Z,16.10
2022-09-29T11:07:24.690Z,16.00
2022-09-29T11:10:28.886Z,15.80
2022-09-29T11:13:37.582Z,15.60
2022-09-29T11:16:31.167Z,15.30
2022-09-29T11:19:19.503Z,15.00
2022-09-29T11:22:26.419Z,15.00
2022-09-29T11:25:40.847Z,15.00
2022-09-29T11:29:11.234Z,14.90
2022-09-29T11:32:18.131Z,15.10
2022-09-29T11:35:22.701Z,15.50
2022-09-29T11:38:45.044Z,15.80
2022-09-29T11:41:57.125Z,16.20
2022-09-29T11:44:59.358Z,16.70
2022-09-29T11:48:05.937Z,16.80
2022-09-29T11:51:02.346Z,16.60
2022-09-29T11:54:06.689Z,16.50
2022-09-29T11:57:02.652Z,16.40
2022-09-29T12:00:03.687Z,16.40
2022-09-29T12:03:12.338Z,16.40
2022-09-29T12:06:26.238Z,16.50
2022-09-29T12:09:33.302Z,16.70
2022-09-29T12:12:30.957Z,17.10
2022-09-29T12:15:31.423Z,17.40
2022-09-29T12:18:22.616Z,17.60
2022-09-29T12:21:17.609Z,17.20
2022-09-29T12:24:11.915Z,17.20
2022-09-29T12:27:02.118Z,17.00
2022-09-29T12:29:56.089Z,16.80
2022-09-29T12:32:49.488Z,16.60
2022-09-29T12:35:44.226Z,16.50
2022-09-29T12:38:37.050Z,16.70
2022-09-29T12:41:30.628Z,16.80
2022-09-29T12:44:28.774Z,17.00
2022-09-29T12:47:24.258Z,17.30
2022-09-29T12:50:18.784Z,17.60
2022-09-29T12:53:17.481Z,17.60
2022-09-29T12:56:12.577Z,17.60
2022-09-29T12:59:06.627Z,17.30
2022-09-29T13:01:57.776Z,17.00
2022-09-29T13:05:07.725Z,16.80
2022-09-29T13:08:14.643Z,16.50
2022-09-29T13:11:22.961Z,16.10
2022-09-29T13:15:01.065Z,16.10
2022-09-29T13:18:07.416Z,16.00
2022-09-29T13:21:08.115Z,16.00
2022-09-29T13:24:21.888Z,16.00
2022-09-29T13:27:26.311Z,16.20
2022-09-29T13:30:18.826Z,16.10
2022-09-29T13:33:11.595Z,16.10
2022-09-29T13:36:01.440Z,16.50
2022-09-29T13:38:57.116Z,17.70
2022-09-29T13:41:45.197Z,19.30
2022-09-29T13:44:33.293Z,20.10
2022-09-29T13:47:34.847Z,20.20
2022-09-29T13:50:42.691Z,19.80
2022-09-29T13:53:37.678Z,19.00
2022-09-29T13:56:25.774Z,18.40
2022-09-29T13:59:16.610Z,18.00
2022-09-29T14:02:21.572Z,17.70
2022-09-29T14:05:38.344Z,17.50
2022-09-29T14:08:29.523Z,17.60
2022-09-29T14:11:27.728Z,17.60
2022-09-29T14:14:21.297Z,17.70
2022-09-29T14:17:14.358Z,17.60
2022-09-29T14:20:07.409Z,17.70
2022-09-29T14:22:59.359Z,17.70
2022-09-29T14:25:54.552Z,17.60
2022-09-29T14:28:44.377Z,17.50
2022-09-29T14:31:33.136Z,17.50
2022-09-29T14:34:24.466Z,17.40
2022-09-29T14:37:19.577Z,17.40
2022-09-29T14:40:26.699Z,17.40
2022-09-29T14:43:17.189Z,17.30
2022-09-29T14:46:46.788Z,17.10
2022-09-29T14:50:31.498Z,17.10
2022-09-29T14:53:45.198Z,17.00
2022-09-29T14:56:48.457Z,16.90
2022-09-29T14:59:54.576Z,16.90
2022-09-29T15:02:52.108Z,16.90
2022-09-29T15:05:43.679Z,16.70
2022-09-29T15:08:34.356Z,16.60
2022-09-29T15:11:31.213Z,16.60
2022-09-29T15:14:26.935Z,16.50
2022-09-29T15:17:21.171Z,16.50
2022-09-29T15:20:18.890Z,16.60
2022-09-29T15:23:44.758Z,16.60
2022-09-29T15:26:34.603Z,16.40
2022-09-29T15:29:23.147Z,16.10
2022-09-29T15:32:22.118Z,15.80
2022-09-29T15:35:15.301Z,15.60
2022-09-29T15:38:28.796Z,15.30
2022-09-29T15:41:18.983Z,15.10
2022-09-29T15:44:18.463Z,15.00
2022-09-29T15:47:06.763Z,14.80
2022-09-29T15:49:55.202Z,14.60
2022-09-29T15:52:44.674Z,14.50
2022-09-29T15:55:33.547Z,14.40
2022-09-29T15:58:44.834Z,14.30
2022-09-29T16:01:33.007Z,14.20
2022-09-29T16:04:21.257Z,14.10
2022-09-29T16:07:20.248Z,14.00
2022-09-29T16:10:16.151Z,13.90
2022-09-29T16:13:08.637Z,13.80
2022-09-29T16:15:59.547Z,13.70
2022-09-29T16:18:50.412Z,13.70
2022-09-29T16:21:39.564Z,13.60
2022-09-29T16:24:30.193Z,13.40
2022-09-29T16:27:42.805Z,13.30
2022-09-29T16:30:32.158Z,13.20
2022-09-29T16:33:23.577Z,13.00
2022-09-29T16:36:14.336Z,12.90
2022-09-29T16:39:03.294Z,12.70
2022-09-29T16:41:53.132Z,12.60
2022-09-29T16:44:44.753Z,12.50
2022-09-29T16:47:33.307Z,12.30
2022-09-29T16:50:21.975Z,12.20
2022-09-29T16:53:24.646Z,12.10
2022-09-29T16:56:20.487Z,12.00
2022-09-29T16:59:12.923Z,11.80
2022-09-29T17:02:05.985Z,11.70
2022-09-29T17:04:55.600Z,11.60
2022-09-29T17:07:43.776Z,11.50
2022-09-29T17:10:32.879Z,11.40
2022-09-29T17:13:22.353Z,11.30
2022-09-29T17:16:12.661Z,11.20
2022-09-29T17:19:02.282Z,11.10
2022-09-29T17:21:50.672Z,11.00
2022-09-29T17:24:38.691Z,10.90
2022-09-29T17:27:45.386Z,10.90
2022-09-29T17:30:33.719Z,10.70
2022-09-29T17:33:21.905Z,10.80
2022-09-29T17:36:14.671Z,10.60
2022-09-29T17:39:02.894Z,10.60
2022-09-29T17:41:51.570Z,10.50
2022-09-29T17:44:42.415Z,10.40
2022-09-29T17:47:35.108Z,10.30
2022-09-29T17:50:27.947Z,10.30
2022-09-29T17:53:18.592Z,10.20
2022-09-29T17:56:07.324Z,10.20
2022-09-29T17:58:57.095Z,10.20
2022-09-29T18:01:45.218Z,10.10
2022-09-29T18:04:34.443Z,10.10
2022-09-29T18:07:22.506Z,10.00
2022-09-29T18:10:21.710Z,10.00
2022-09-29T18:13:10.262Z,10.00
2022-09-29T18:16:00.454Z,9.90
2022-09-29T18:18:48.972Z,9.90
2022-09-29T18:21:37.434Z,9.80
2022-09-29T18:24:25.482Z,9.80
2022-09-29T18:27:14.993Z,9.80
2022-09-29T18:30:03.191Z,9.70
2022-09-29T18:32:53.604Z,9.70
2022-09-29T18:35:43.992Z,9.70
2022-09-29T18:38:32.009Z,9.60
2022-09-29T18:41:23.079Z,9.50
2022-09-29T18:44:15.310Z,9.50
2022-09-29T18:47:03.452Z,9.40
2022-09-29T18:49:51.676Z,9.40
2022-09-29T18:52:39.690Z,9.30
2022-09-29T18:55:30.012Z,9.40
2022-09-29T18:58:20.047Z,9.30
2022-09-29T19:01:13.904Z,9.20
2022-09-29T19:04:02.304Z,9.20
2022-09-29T19:06:50.357Z,9.20
2022-09-29T19:09:38.695Z,9.10
2022-09-29T19:12:29.628Z,9.10
2022-09-29T19:15:20.188Z,9.00
2022-09-29T19:18:10.634Z,9.00
2022-09-29T19:20:59.729Z,9.00
2022-09-29T19:23:47.850Z,8.90
2022-09-29T19:26:35.887Z,8.90
2022-09-29T19:29:23.909Z,8.90
2022-09-29T19:32:12.871Z,8.90
2022-09-29T19:35:02.256Z,8.80
2022-09-29T19:37:50.382Z,8.70
2022-09-29T19:40:38.503Z,8.70
2022-09-29T19:43:26.597Z,8.70
2022-09-29T19:46:16.322Z,8.60
2022-09-29T19:49:04.654Z,8.60
2022-09-29T19:51:55.186Z,8.60
2022-09-29T19:54:43.250Z,8.60
2022-09-29T19:57:31.865Z,8.50
2022-09-29T20:00:21.571Z,8.40
2022-09-29T20:03:10.161Z,8.40
2022-09-29T20:06:01.667Z,8.40
2022-09-29T20:08:51.009Z,8.40
2022-09-29T20:11:40.374Z,8.40
2022-09-29T20:14:29.324Z,8.40
2022-09-29T20:17:17.639Z,8.30
2022-09-29T20:20:07.413Z,8.40
2022-09-29T20:22:55.499Z,8.30
2022-09-29T20:25:44.899Z,8.30
2022-09-29T20:28:32.944Z,8.30
2022-09-29T20:31:21.673Z,8.20
2022-09-29T20:34:10.672Z,8.20
2022-09-29T20:36:58.713Z,8.20
2022-09-29T20:39:50.001Z,8.20
2022-09-29T20:42:39.337Z,8.20
2022-09-29T20:45:27.420Z,8.10
2022-09-29T20:48:15.426Z,8.10
2022-09-29T20:51:04.879Z,8.10
2022-09-29T20:53:55.084Z,8.00
2022-09-29T20:56:43.137Z,7.90
2022-09-29T20:59:32.504Z,7.90
2022-09-29T21:02:21.476Z,7.80
2022-09-29T21:05:09.830Z,7.90
2022-09-29T21:07:57.849Z,7.90
2022-09-29T21:10:45.885Z,7.80
2022-09-29T21:13:34.027Z,7.80
2022-09-29T21:16:23.577Z,7.80
2022-09-29T21:19:12.505Z,7.80
2022-09-29T21:22:00.552Z,7.80
2022-09-29T21:24:48.746Z,7.70
2022-09-29T21:27:40.877Z,7.70
2022-09-29T21:30:29.518Z,7.70
2022-09-29T21:33:19.048Z,7.70
2022-09-29T21:36:09.724Z,7.70
2022-09-29T21:38:58.255Z,7.60
2022-09-29T21:41:46.604Z,7.60
2022-09-29T21:44:34.886Z,7.60
2022-09-29T21:47:42.900Z,7.60
2022-09-29T21:50:32.272Z,7.60
2022-09-29T21:53:20.296Z,7.50
2022-09-29T21:56:10.829Z,7.50
2022-09-29T21:58:59.235Z,7.50
2022-09-29T22:01:48.244Z,7.40
2022-09-29T22:04:36.398Z,7.30
2022-09-29T22:07:25.796Z,7.40
2022-09-29T22:10:13.837Z,7.40
2022-09-29T22:13:01.871Z,7.40
2022-09-29T22:15:49.988Z,7.30
2022-09-29T22:18:42.477Z,7.40
2022-09-29T22:21:31.126Z,7.30
2022-09-29T22:24:20.597Z,7.30
2022-09-29T22:27:08.613Z,7.30
2022-09-29T22:29:56.652Z,7.30
2022-09-29T22:32:44.764Z,7.40
2022-09-29T22:35:34.275Z,7.20
2022-09-29T22:38:24.132Z,7.20
2022-09-29T22:41:16.768Z,7.20
2022-09-29T22:44:04.998Z,7.10
2022-09-29T22:46:53.130Z,7.10
2022-09-29T22:49:41.244Z,7.10
2022-09-29T22:52:29.309Z,7.10
2022-09-29T22:55:17.636Z,7.00
2022-09-29T22:58:07.024Z,7.00
2022-09-29T23:01:04.355Z,6.90
2022-09-29T23:03:52.465Z,6.90
2022-09-29T23:06:41.375Z,6.90
2022-09-29T23:09:29.519Z,6.90
2022-09-29T23:12:18.106Z,6.90
2022-09-29T23:15:08.386Z,6.90
2022-09-29T23:17:56.439Z,6.90
2022-09-29T23:20:44.632Z,6.80
2022-09-29T23:23:33.543Z,6.80
2022-09-29T23:26:21.800Z,6.90
2022-09-29T23:29:09.861Z,6.80
2022-09-29T23:31:59.315Z,6.70
2022-09-29T23:34:47.739Z,6.70
2022-09-29T23:37:49.766Z,6.60
2022-09-29T23:40:37.802Z,6.60
2022-09-29T23:43:25.896Z,6.60
2022-09-29T23:46:14.031Z,6.60
2022-09-29T23:49:08.889Z,6.60
2022-09-29T23:51:59.153Z,6.60
2022-09-29T23:54:47.825Z,6.60
2022-09-29T23:57:35.821Z,6.60
